Time;durP1;ratioP1;P1;durP2;ratioP2;P2;SDS_P1;SDS_P2;PMS_P1;PMS_P2;Temp;Humidity;BMP_temperature;BMP_pressure;BME280_temperature;BME280_humidity;BME280_pressure;Samples;Min_cycle;Max_cycle;Signal;HPM_P1;HPM_P2
2022/06/09 00:01:53;;;;;;;;;29.25;26.25;;;;;-146.59;100.00;59519.28;4979457;28;51189;-41
2022/06/09 00:04:43;;;;;;;;;33.50;29.00;;;;;-146.59;100.00;59519.28;4979008;28;51158;-42
2022/06/09 00:07:29;;;;;;;;;29.50;27.00;;;;;-146.59;100.00;59519.28;4977280;28;51388;-41
2022/06/09 00:10:18;;;;;;;;;30.75;27.00;;;;;-146.59;100.00;59519.28;4976994;28;51470;-45
2022/06/09 00:13:02;;;;;;;;;28.50;28.50;;;;;-146.59;100.00;59519.28;4978975;28;51266;-43
2022/06/09 00:15:50;;;;;;;;;29.50;26.00;;;;;-146.59;100.00;59519.28;4978995;28;51517;-41
2022/06/09 00:18:37;;;;;;;;;29.00;27.75;;;;;-146.59;100.00;59519.28;4977958;28;51112;-44
2022/06/09 00:21:23;;;;;;;;;34.50;25.50;;;;;-146.59;100.00;59519.28;4979130;28;51192;-44
2022/06/09 00:24:09;;;;;;;;;33.50;27.50;;;;;-146.59;100.00;59519.28;4979941;28;51139;-43
2022/06/09 00:26:54;;;;;;;;;28.50;26.50;;;;;-146.59;100.00;59519.28;4978655;28;51189;-45
2022/06/09 00:29:38;;;;;;;;;30.25;28.75;;;;;-146.59;100.00;59519.28;4978222;28;51248;-42
2022/06/09 00:32:23;;;;;;;;;34.75;29.75;;;;;-146.59;100.00;59519.28;4977528;28;51066;-41
2022/06/09 00:35:08;;;;;;;;;32.00;27.25;;;;;-146.59;100.00;59519.28;4977568;28;51442;-42
2022/06/09 00:37:55;;;;;;;;;32.25;26.00;;;;;-146.59;100.00;59519.28;4976430;28;51177;-42
2022/06/09 00:40:47;;;;;;;;;24.75;20.00;;;;;-146.59;100.00;59519.28;4978567;28;51255;-44
2022/06/09 00:43:33;;;;;;;;;18.25;18.00;;;;;-146.59;100.00;59519.28;4975867;28;51219;-42
2022/06/09 00:46:30;;;;;;;;;29.50;24.00;;;;;-146.59;100.00;59519.28;4965355;28;51202;-46
2022/06/09 00:49:29;;;;;;;;;33.75;27.00;;;;;-146.59;100.00;59519.28;4977413;28;51437;-43
2022/06/09 00:52:37;;;;;;;;;29.50;25.25;;;;;-146.59;100.00;59519.28;4977984;28;51276;-43
2022/06/09 00:55:39;;;;;;;;;34.50;28.00;;;;;-146.59;100.00;59519.28;4977949;28;51601;-44
2022/06/09 00:59:05;;;;;;;;;27.25;25.75;;;;;-146.59;100.00;59519.28;4977301;28;51487;-43
2022/06/09 01:01:56;;;;;;;;;31.75;28.75;;;;;-146.59;100.00;59519.28;4977205;28;51506;-42
2022/06/09 01:04:43;;;;;;;;;29.00;27.00;;;;;-146.59;100.00;59519.28;4963562;28;51187;-42
2022/06/09 01:07:50;;;;;;;;;31.50;27.50;;;;;-146.59;100.00;59519.28;4964528;28;51555;-42
2022/06/09 01:10:38;;;;;;;;;28.75;26.00;;;;;-146.59;100.00;59519.28;4979064;28;51099;-52
2022/06/09 01:13:24;;;;;;;;;30.25;29.25;;;;;-146.59;100.00;59519.28;4974719;28;51276;-42
2022/06/09 01:16:48;;;;;;;;;31.00;26.50;;;;;-146.59;100.00;59519.28;4959517;28;51461;-42
2022/06/09 01:19:57;;;;;;;;;31.00;27.25;;;;;-146.59;100.00;59519.28;4960097;28;51047;-43
2022/06/09 01:23:21;;;;;;;;;29.75;27.25;;;;;-146.59;100.00;59519.28;4959905;28;51171;-42
2022/06/09 01:26:32;;;;;;;;;30.25;27.25;;;;;-146.59;100.00;59519.28;4960461;28;51145;-42
2022/06/09 01:29:45;;;;;;;;;33.25;27.00;;;;;-146.59;100.00;59519.28;4945077;28;51155;-43
2022/06/09 01:32:54;;;;;;;;;31.00;28.50;;;;;-146.59;100.00;59519.28;4959807;28;51149;-44
2022/06/09 01:35:47;;;;;;;;;31.00;26.00;;;;;-146.59;100.00;59519.28;4959955;28;51252;-44
2022/06/09 01:39:10;;;;;;;;;27.50;25.00;;;;;-146.59;100.00;59519.28;4945036;28;51173;-43
2022/06/09 01:41:55;;;;;;;;;32.50;28.25;;;;;-146.59;100.00;59519.28;4957701;28;51189;-45
2022/06/09 01:45:38;;;;;;;;;31.50;27.50;;;;;-146.59;100.00;59519.28;4958304;28;51587;-42
2022/06/09 01:48:28;;;;;;;;;31.75;26.00;;;;;-146.59;100.00;59519.28;4960145;28;51170;-40
2022/06/09 01:51:22;;;;;;;;;33.50;28.75;;;;;-146.59;100.00;59519.28;4960131;28;51488;-44
2022/06/09 01:54:35;;;;;;;;;29.75;27.75;;;;;-146.59;100.00;59519.28;4960031;28;51078;-45
2022/06/09 01:57:27;;;;;;;;;31.00;27.75;;;;;-146.59;100.00;59519.28;4963623;28;51405;-41
2022/06/09 02:00:17;;;;;;;;;33.75;28.25;;;;;-146.59;100.00;59519.28;4948951;28;51203;-42
2022/06/09 02:03:28;;;;;;;;;32.75;28.00;;;;;-146.59;100.00;59519.28;4952010;28;51556;-43
2022/06/09 02:06:21;;;;;;;;;29.00;25.75;;;;;-146.59;100.00;59519.28;4963284;28;51132;-45
2022/06/09 02:09:29;;;;;;;;;35.25;29.25;;;;;-146.59;100.00;59519.28;4963377;28;51198;-43
2022/06/09 02:12:28;;;;;;;;;23.25;23.25;;;;;-146.59;100.00;59519.28;4963268;28;51352;-42
2022/06/09 02:15:21;;;;;;;;;31.50;27.75;;;;;-146.59;100.00;59519.28;4982170;28;51255;-42
2022/06/09 02:18:11;;;;;;;;;31.25;26.50;;;;;-146.59;100.00;59519.28;4982720;28;51187;-41
2022/06/09 02:21:03;;;;;;;;;25.00;21.50;;;;;-146.59;100.00;59519.28;4983298;28;50998;-45
2022/06/09 02:23:51;;;;;;;;;33.25;30.25;;;;;-146.59;100.00;59519.28;4982577;28;51223;-45
2022/06/09 02:26:41;;;;;;;;;25.75;25.75;;;;;-146.59;100.00;59519.28;4982811;28;51164;-44
2022/06/09 02:29:30;;;;;;;;;30.50;28.00;;;;;-146.59;100.00;59519.28;4982714;28;51172;-40
2022/06/09 02:32:22;;;;;;;;;25.50;24.75;;;;;-146.59;100.00;59519.28;4982436;28;51120;-42
2022/06/09 02:35:10;;;;;;;;;32.25;29.25;;;;;-146.59;100.00;59519.28;4982953;28;51164;-43
2022/06/09 02:38:09;;;;;;;;;37.25;28.00;;;;;-146.59;100.00;59519.28;4982292;28;51214;-42
2022/06/09 02:40:55;;;;;;;;;29.25;26.00;;;;;-146.59;100.00;59519.28;4982207;28;51182;-44
2022/06/09 02:43:44;;;;;;;;;28.50;25.00;;;;;-146.59;100.00;59519.28;4982147;28;51137;-42
2022/06/09 02:46:31;;;;;;;;;28.25;28.25;;;;;-146.59;100.00;59519.28;4981421;28;51581;-42
2022/06/09 02:49:17;;;;;;;;;35.50;28.00;;;;;-146.59;100.00;59519.28;4982198;28;51223;-42
2022/06/09 02:52:05;;;;;;;;;30.25;25.00;;;;;-146.59;100.00;59519.28;4981958;28;51167;-43
2022/06/09 02:54:54;;;;;;;;;27.25;25.00;;;;;-146.59;100.00;59519.28;4967382;28;51403;-43
2022/06/09 02:57:45;;;;;;;;;28.50;26.00;;;;;-146.59;100.00;59519.28;4982174;28;51245;-42
2022/06/09 03:00:31;;;;;;;;;34.50;29.75;;;;;-146.59;100.00;59519.28;4980587;28;51125;-44
2022/06/09 03:03:35;;;;;;;;;33.00;29.00;;;;;-146.59;100.00;59519.28;4981889;28;51347;-44
2022/06/09 03:06:22;;;;;;;;;32.75;28.75;;;;;-146.59;100.00;59519.28;4981663;28;51256;-44
2022/06/09 03:09:15;;;;;;;;;30.25;27.00;;;;;-146.59;100.00;59519.28;4981941;28;51231;-43
2022/06/09 03:12:04;;;;;;;;;26.00;22.75;;;;;-146.59;100.00;59519.28;4981969;28;51110;-43
2022/06/09 03:14:51;;;;;;;;;22.75;20.00;;;;;-146.59;100.00;59519.28;4965962;28;51551;-42
2022/06/09 03:17:37;;;;;;;;;36.00;29.25;;;;;-146.59;100.00;59519.28;4961915;28;51039;-44
2022/06/09 03:20:33;;;;;;;;;27.75;25.00;;;;;-146.59;100.00;59519.28;4962117;28;51553;-43
2022/06/09 03:23:51;;;;;;;;;26.50;26.00;;;;;-146.59;100.00;59519.28;4961864;28;51126;-41
2022/06/09 03:26:43;;;;;;;;;37.75;30.50;;;;;-146.59;100.00;59519.28;4962253;28;51134;-43
2022/06/09 03:29:27;;;;;;;;;34.00;29.00;;;;;-146.59;100.00;59519.28;4961989;28;51031;-43
2022/06/09 03:32:15;;;;;;;;;36.00;30.75;;;;;-146.59;100.00;59519.28;4961660;28;51204;-43
2022/06/09 03:34:59;;;;;;;;;29.00;25.00;;;;;-146.59;100.00;59519.28;4946997;28;51260;-43
2022/06/09 03:37:46;;;;;;;;;31.00;28.25;;;;;-146.59;100.00;59519.28;4961987;28;51114;-43
2022/06/09 03:40:52;;;;;;;;;27.00;23.75;;;;;-146.59;100.00;59519.28;4901393;28;51082;-43
2022/06/09 03:43:40;;;;;;;;;29.50;28.75;;;;;-146.59;100.00;59519.28;4901629;28;51169;-46
2022/06/09 03:46:57;;;;;;;;;27.75;27.25;;;;;-146.59;100.00;59519.28;4901669;28;51634;-43
2022/06/09 03:49:53;;;;;;;;;32.75;27.00;;;;;-146.59;100.00;59519.28;4901539;28;51081;-41
2022/06/09 03:52:40;;;;;;;;;25.00;23.75;;;;;-146.59;100.00;59519.28;4902046;28;51188;-45
2022/06/09 03:55:27;;;;;;;;;27.75;26.75;;;;;-146.59;100.00;59519.28;4897016;28;51302;-46
2022/06/09 03:58:16;;;;;;;;;28.50;20.50;;;;;-146.59;100.00;59519.28;4901556;28;51124;-43
2022/06/09 04:01:04;;;;;;;;;32.75;27.25;;;;;-146.59;100.00;59519.28;4900891;28;51602;-44
2022/06/09 04:03:50;;;;;;;;;31.00;27.50;;;;;-146.59;100.00;59519.28;4896181;28;51209;-44
2022/06/09 04:06:36;;;;;;;;;31.75;27.00;;;;;-146.59;100.00;59519.28;4901004;28;51057;-42
2022/06/09 04:09:21;;;;;;;;;36.50;26.25;;;;;-146.59;100.00;59519.28;4875002;28;51194;-42
2022/06/09 04:12:09;;;;;;;;;34.75;29.00;;;;;-146.59;100.00;59519.28;4887964;28;51541;-44
2022/06/09 04:14:55;;;;;;;;;30.25;28.25;;;;;-146.59;100.00;59519.28;4943249;28;51083;-43
2022/06/09 04:17:45;;;;;;;;;32.25;28.75;;;;;-146.59;100.00;59519.28;4980688;28;51171;-44
2022/06/09 04:20:32;;;;;;;;;31.50;27.50;;;;;-146.59;100.00;59519.28;4980408;28;51993;-42
2022/06/09 04:23:17;;;;;;;;;30.25;28.50;;;;;-146.59;100.00;59519.28;4980496;28;51180;-42
2022/06/09 04:26:06;;;;;;;;;33.25;29.25;;;;;-146.59;100.00;59519.28;4980252;28;51128;-42
2022/06/09 04:28:57;;;;;;;;;37.50;29.00;;;;;-146.59;100.00;59519.28;4980656;28;51141;-43
2022/06/09 04:31:42;;;;;;;;;34.75;30.00;;;;;-146.59;100.00;59519.28;4976407;28;51403;-42
2022/06/09 04:34:28;;;;;;;;;31.75;27.50;;;;;-146.59;100.00;59519.28;4979506;28;51097;-46
2022/06/09 04:37:18;;;;;;;;;37.25;30.75;;;;;-146.59;100.00;59519.28;4980322;28;51180;-43
2022/06/09 04:40:22;;;;;;;;;31.75;27.25;;;;;-146.59;100.00;59519.28;4980041;28;51288;-43
2022/06/09 04:43:19;;;;;;;;;34.50;30.00;;;;;-146.59;100.00;59519.28;4980429;28;51089;-42
2022/06/09 04:46:11;;;;;;;;;33.75;29.50;;;;;-146.59;100.00;59519.28;4980206;28;51349;-43
2022/06/09 04:48:58;;;;;;;;;27.50;25.50;;;;;-146.59;100.00;59519.28;4980355;28;51614;-45
2022/06/09 04:51:45;;;;;;;;;30.00;27.50;;;;;-146.59;100.00;59519.28;4979426;28;51112;-43
2022/06/09 04:54:34;;;;;;;;;40.50;31.50;;;;;-146.59;100.00;59519.28;4980432;28;51012;-42
2022/06/09 04:57:32;;;;;;;;;33.75;29.00;;;;;-146.59;100.00;59519.28;4974432;28;51457;-43
2022/06/09 05:00:18;;;;;;;;;31.50;25.25;;;;;-146.59;100.00;59519.28;4979991;28;51164;-43
2022/06/09 05:03:11;;;;;;;;;33.50;29.75;;;;;-146.59;100.00;59519.28;4979945;28;51550;-42
2022/06/09 05:06:18;;;;;;;;;32.00;29.00;;;;;-146.59;100.00;59519.28;4979325;28;51109;-43
2022/06/09 05:09:06;;;;;;;;;29.75;28.25;;;;;-146.59;100.00;59519.28;4980131;28;51128;-43
2022/06/09 05:12:05;;;;;;;;;33.25;29.25;;;;;-146.59;100.00;59519.28;4979676;28;51485;-43
2022/06/09 05:15:19;;;;;;;;;32.00;26.50;;;;;-146.59;100.00;59519.28;4965230;28;51773;-45
2022/06/09 05:18:25;;;;;;;;;30.00;27.25;;;;;-146.59;100.00;59519.28;4959813;28;51173;-45
2022/06/09 05:21:19;;;;;;;;;33.25;29.50;;;;;-146.59;100.00;59519.28;4952363;28;52763;-46
2022/06/09 05:24:38;;;;;;;;;29.75;27.00;;;;;-146.59;100.00;59519.28;4959938;28;51049;-44
2022/06/09 05:27:22;;;;;;;;;34.75;30.00;;;;;-146.59;100.00;59519.28;4960148;28;51338;-41
2022/06/09 05:30:13;;;;;;;;;38.50;30.25;;;;;-146.59;100.00;59519.28;4960664;28;51196;-42
2022/06/09 05:32:58;;;;;;;;;34.25;28.75;;;;;-146.59;100.00;59519.28;4964082;28;51132;-42
2022/06/09 05:35:50;;;;;;;;;35.50;30.25;;;;;-146.59;100.00;59519.28;4964650;28;51114;-42
2022/06/09 05:44:54;;;;;;;;;31.50;28.75;;;;;-146.59;100.00;59519.28;4963983;28;51204;-42
2022/06/09 05:48:04;;;;;;;;;36.00;28.50;;;;;-146.59;100.00;59519.28;4964175;28;51263;-44
2022/06/09 05:51:01;;;;;;;;;33.50;27.25;;;;;-146.59;100.00;59519.28;4949020;28;51438;-41
2022/06/09 05:54:03;;;;;;;;;33.25;28.00;;;;;-146.59;100.00;59519.28;4963764;28;51252;-42
2022/06/09 05:56:51;;;;;;;;;33.50;26.50;;;;;-146.59;100.00;59519.28;4964174;28;51097;-41
2022/06/09 05:59:40;;;;;;;;;30.50;27.25;;;;;-146.59;100.00;59519.28;4963510;28;51135;-44
2022/06/09 06:02:27;;;;;;;;;27.75;27.75;;;;;-146.59;100.00;59519.28;4962905;28;51134;-41
2022/06/09 06:08:21;;;;;;;;;37.50;31.50;;;;;-146.59;100.00;59519.28;4959435;28;51167;-44
2022/06/09 06:11:18;;;;;;;;;38.00;31.00;;;;;-146.59;100.00;59519.28;4956968;28;51158;-43
2022/06/09 06:14:08;;;;;;;;;36.50;30.50;;;;;-146.59;100.00;59519.28;4968913;28;51218;-44
2022/06/09 06:16:54;;;;;;;;;34.00;29.25;;;;;-146.59;100.00;59519.28;4982593;28;51456;-43
2022/06/09 06:20:01;;;;;;;;;32.50;28.75;;;;;-146.59;100.00;59519.28;4982795;28;51159;-45
2022/06/09 06:22:46;;;;;;;;;35.00;30.75;;;;;-146.59;100.00;59519.28;4981390;28;51191;-52
2022/06/09 06:25:34;;;;;;;;;37.75;30.25;;;;;-146.59;100.00;59519.28;4981614;28;51429;-54
2022/06/09 06:28:22;;;;;;;;;31.75;29.50;;;;;-146.59;100.00;59519.28;4979587;28;51315;-51
2022/06/09 06:31:19;;;;;;;;;29.75;29.00;;;;;-146.59;100.00;59519.28;4982654;28;51516;-54
2022/06/09 06:34:16;;;;;;;;;32.50;28.50;;;;;-146.59;100.00;59519.28;4982507;28;51560;-56
2022/06/09 06:37:03;;;;;;;;;36.25;27.50;;;;;-146.59;100.00;59519.28;4981885;28;51572;-52
2022/06/09 06:39:55;;;;;;;;;34.25;31.00;;;;;-146.59;100.00;59519.28;4982239;28;51089;-50
2022/06/09 06:42:44;;;;;;;;;32.75;29.00;;;;;-146.59;100.00;59519.28;4981740;28;51145;-53
2022/06/09 06:45:33;;;;;;;;;29.00;27.00;;;;;-146.59;100.00;59519.28;4981934;28;51091;-50
2022/06/09 06:48:20;;;;;;;;;32.25;28.75;;;;;-146.59;100.00;59519.28;4982279;28;51117;-51
2022/06/09 06:54:05;;;;;;;;;30.00;28.00;;;;;-146.59;100.00;59519.28;4958282;28;51120;-50
2022/06/09 06:57:16;;;;;;;;;30.50;28.00;;;;;-146.59;100.00;59519.28;4960193;28;51437;-52
2022/06/09 07:00:11;;;;;;;;;30.75;28.00;;;;;-146.59;100.00;59519.28;4960346;28;51280;-54
2022/06/09 07:02:58;;;;;;;;;24.75;23.00;;;;;-146.59;100.00;59519.28;4959829;28;51191;-50
2022/06/09 07:05:46;;;;;;;;;32.00;28.25;;;;;-146.59;100.00;59519.28;4960467;28;51288;-54
2022/06/09 07:08:53;;;;;;;;;28.50;25.50;;;;;-146.59;100.00;59519.28;4946830;28;51126;-50
2022/06/09 07:11:49;;;;;;;;;25.75;23.75;;;;;-146.59;100.00;59519.28;4959999;28;51391;-51
2022/06/09 07:14:35;;;;;;;;;24.50;21.00;;;;;-146.59;100.00;59519.28;4939234;28;51209;-51
2022/06/09 07:17:34;;;;;;;;;24.75;22.50;;;;;-146.59;100.00;59519.28;4920823;28;51155;-54
2022/06/09 07:20:23;;;;;;;;;25.00;24.00;;;;;-146.59;100.00;59519.28;4921296;28;51174;-51
2022/06/09 07:23:12;;;;;;;;;24.50;24.50;;;;;-146.59;100.00;59519.28;4895081;28;51454;-54
2022/06/09 07:25:59;;;;;;;;;28.00;23.25;;;;;-146.59;100.00;59519.28;4907762;28;51530;-52
2022/06/09 07:28:55;;;;;;;;;24.75;22.00;;;;;-146.59;100.00;59519.28;4908017;28;51248;-54
2022/06/09 07:32:08;;;;;;;;;30.75;25.75;;;;;-146.59;100.00;59519.28;4949941;28;51340;-51
2022/06/09 07:34:55;;;;;;;;;24.50;24.25;;;;;-146.59;100.00;59519.28;4976155;28;51620;-50
2022/06/09 07:37:40;;;;;;;;;26.75;20.25;;;;;-146.59;100.00;59519.28;4959954;28;51194;-53
2022/06/09 07:40:26;;;;;;;;;25.00;23.75;;;;;-146.59;100.00;59519.28;4954087;28;51225;-52
2022/06/09 07:43:14;;;;;;;;;21.50;17.50;;;;;-146.59;100.00;59519.28;4980897;28;51138;-49
2022/06/09 07:46:04;;;;;;;;;23.25;22.25;;;;;-146.59;100.00;59519.28;4966446;28;51122;-55
2022/06/09 07:49:11;;;;;;;;;18.25;18.00;;;;;-146.59;100.00;59519.28;4980702;28;51204;-54
2022/06/09 07:52:09;;;;;;;;;24.75;20.25;;;;;-146.59;100.00;59519.28;4957590;28;51191;-50
2022/06/09 07:55:06;;;;;;;;;22.50;21.75;;;;;-146.59;100.00;59519.28;4956490;28;51342;-54
2022/06/09 07:57:53;;;;;;;;;24.25;23.00;;;;;-146.59;100.00;59519.28;4961840;28;51094;-51
2022/06/09 08:00:58;;;;;;;;;27.75;22.25;;;;;-146.59;100.00;59519.28;4939671;28;51274;-54
2022/06/09 08:03:47;;;;;;;;;28.00;23.75;;;;;-146.59;100.00;59519.28;4939696;28;51232;-51
2022/06/09 08:06:38;;;;;;;;;24.25;21.50;;;;;-146.59;100.00;59519.28;4899908;28;51323;-51
2022/06/09 08:09:44;;;;;;;;;21.00;21.00;;;;;-146.59;100.00;59519.28;4939100;28;51588;-53
2022/06/09 08:12:31;;;;;;;;;26.00;24.75;;;;;-146.59;100.00;59519.28;4939635;28;51036;-52
2022/06/09 08:15:24;;;;;;;;;22.50;22.50;;;;;-146.59;100.00;59519.28;4939220;28;51179;-50
2022/06/09 08:18:10;;;;;;;;;25.00;21.00;;;;;-146.59;100.00;59519.28;4939546;28;51197;-53
2022/06/09 08:20:59;;;;;;;;;21.00;21.00;;;;;-146.59;100.00;59519.28;4939115;28;51166;-54
2022/06/09 08:23:52;;;;;;;;;27.75;20.75;;;;;-146.59;100.00;59519.28;4938346;28;51529;-51
2022/06/09 08:26:38;;;;;;;;;31.50;23.50;;;;;-146.59;100.00;59519.28;4938818;28;51516;-50
2022/06/09 08:29:25;;;;;;;;;25.75;22.00;;;;;-146.59;100.00;59519.28;4938990;28;51236;-53
2022/06/09 08:32:16;;;;;;;;;24.00;22.50;;;;;-146.59;100.00;59519.28;4912337;28;51418;-51
2022/06/09 08:35:24;;;;;;;;;22.00;19.25;;;;;-146.59;100.00;59519.28;4937107;28;51288;-51
2022/06/09 08:38:18;;;;;;;;;25.25;21.75;;;;;-146.59;100.00;59519.28;4938890;28;51147;-52
2022/06/09 08:41:36;;;;;;;;;22.50;21.50;;;;;-146.59;100.00;59519.28;4961192;28;51200;-52
2022/06/09 08:44:47;;;;;;;;;25.00;21.00;;;;;-146.59;100.00;59519.28;4931621;28;51163;-49
2022/06/09 08:48:02;;;;;;;;;23.75;23.75;;;;;-146.59;100.00;59519.28;4957963;28;51031;-51
2022/06/09 08:51:15;;;;;;;;;27.25;22.50;;;;;-146.59;100.00;59519.28;4973707;28;51057;-48
2022/06/09 08:54:48;;;;;;;;;23.00;21.75;;;;;-146.59;100.00;59519.28;4971565;28;51677;-53
2022/06/09 08:57:33;;;;;;;;;29.25;25.25;;;;;-146.59;100.00;59519.28;4948218;28;51137;-53
2022/06/09 09:00:25;;;;;;;;;19.75;18.00;;;;;-146.59;100.00;59519.28;4960246;28;51251;-51
2022/06/09 09:03:26;;;;;;;;;26.50;24.50;;;;;-146.59;100.00;59519.28;4952615;28;51068;-52
2022/06/09 09:06:36;;;;;;;;;23.75;23.50;;;;;-146.59;100.00;59519.28;4959406;28;51099;-52
2022/06/09 09:09:26;;;;;;;;;31.00;23.25;;;;;-146.59;100.00;59519.28;4960363;28;51178;-50
2022/06/09 09:13:00;;;;;;;;;28.25;25.25;;;;;-146.59;100.00;59519.28;4945586;28;51168;-50
2022/06/09 09:15:58;;;;;;;;;23.75;22.75;;;;;-146.59;100.00;59519.28;4974404;28;51232;-50
2022/06/09 09:19:37;;;;;;;;;26.25;22.00;;;;;-146.59;100.00;59519.28;4979095;28;51234;-49
2022/06/09 09:23:00;;;;;;;;;24.25;21.25;;;;;-146.59;100.00;59519.28;4939738;28;51565;-54
2022/06/09 09:26:44;;;;;;;;;32.00;28.25;;;;;-146.59;100.00;59519.28;4972322;28;51121;-54
2022/06/09 09:29:53;;;;;;;;;23.25;23.00;;;;;-146.59;100.00;59519.28;4979628;28;51438;-54
2022/06/09 09:32:59;;;;;;;;;23.75;22.75;;;;;-146.59;100.00;59519.28;4978965;28;51049;-54
2022/06/09 09:35:51;;;;;;;;;20.00;20.00;;;;;-146.59;100.00;59519.28;4979675;28;51113;-51
2022/06/09 09:38:44;;;;;;;;;19.25;19.25;;;;;-146.59;100.00;59519.28;4964840;28;51079;-51
2022/06/09 09:41:38;;;;;;;;;22.50;21.50;;;;;-146.59;100.00;59519.28;4974181;28;51632;-52
2022/06/09 09:44:37;;;;;;;;;22.00;20.75;;;;;-146.59;100.00;59519.28;4979359;28;51284;-51
2022/06/09 09:47:25;;;;;;;;;25.50;21.75;;;;;-146.59;100.00;59519.28;4979388;28;51038;-53
2022/06/09 09:50:53;;;;;;;;;25.75;22.25;;;;;-146.59;100.00;59519.28;4979445;28;51192;-51
2022/06/09 09:53:46;;;;;;;;;26.50;21.50;;;;;-146.59;100.00;59519.28;4975150;28;51165;-54
2022/06/09 09:56:42;;;;;;;;;26.75;23.25;;;;;-146.59;100.00;59519.28;4979388;28;51097;-52
2022/06/09 09:59:56;;;;;;;;;24.00;22.25;;;;;-146.59;100.00;59519.28;4979471;28;51122;-52
2022/06/09 10:09:07;;;;;;;;;26.50;24.00;;;;;-146.59;100.00;59519.28;4974486;28;51128;-53
2022/06/09 10:11:59;;;;;;;;;24.75;21.50;;;;;-146.59;100.00;59519.28;4979176;28;51095;-51
2022/06/09 10:15:06;;;;;;;;;28.25;23.00;;;;;-146.59;100.00;59519.28;4967953;28;51171;-52
2022/06/09 10:18:16;;;;;;;;;21.25;21.25;;;;;-146.59;100.00;59519.28;4948069;28;51066;-53
2022/06/09 10:21:10;;;;;;;;;26.25;24.75;;;;;-146.59;100.00;59519.28;4957216;28;51100;-52
2022/06/09 10:24:11;;;;;;;;;27.25;22.50;;;;;-146.59;100.00;59519.28;4963436;28;51563;-53
2022/06/09 10:27:02;;;;;;;;;23.50;21.25;;;;;-146.59;100.00;59519.28;4963175;28;51358;-51
2022/06/09 10:30:18;;;;;;;;;24.50;21.75;;;;;-146.59;100.00;59519.28;4948810;28;51060;-51
2022/06/09 10:33:40;;;;;;;;;23.00;21.25;;;;;-146.59;100.00;59519.28;4949066;28;51204;-52
2022/06/09 10:37:06;;;;;;;;;18.00;16.50;;;;;-146.59;100.00;59519.28;4957093;28;51502;-52
2022/06/09 10:40:03;;;;;;;;;25.50;22.75;;;;;-146.59;100.00;59519.28;4962947;28;51180;-51
2022/06/09 10:43:03;;;;;;;;;25.50;22.25;;;;;-146.59;100.00;59519.28;4963306;28;51197;-51
2022/06/09 10:46:26;;;;;;;;;22.25;20.50;;;;;-146.59;100.00;59519.28;4962796;28;51598;-50
2022/06/09 10:56:12;;;;;;;;;22.75;19.00;;;;;-146.59;100.00;59519.28;4962633;28;51181;-53
2022/06/09 10:59:13;;;;;;;;;26.50;21.50;;;;;-146.59;100.00;59519.28;4948602;28;51114;-52
2022/06/09 11:02:02;;;;;;;;;20.75;20.75;;;;;-146.59;100.00;59519.28;4962621;28;51101;-54
2022/06/09 11:05:18;;;;;;;;;25.75;21.50;;;;;-146.59;100.00;59519.28;4947791;28;51113;-53
2022/06/09 11:08:27;;;;;;;;;23.50;20.75;;;;;-146.59;100.00;59519.28;4948045;28;51277;-49
2022/06/09 11:11:34;;;;;;;;;28.50;25.25;;;;;-146.59;100.00;59519.28;4948669;28;51190;-52
2022/06/09 11:14:38;;;;;;;;;24.25;20.25;;;;;-146.59;100.00;59519.28;4967310;28;51148;-50
2022/06/09 11:18:03;;;;;;;;;30.25;22.75;;;;;-146.59;100.00;59519.28;4981822;28;51179;-51
2022/06/09 11:21:26;;;;;;;;;28.25;21.25;;;;;-146.59;100.00;59519.28;4981471;28;51522;-49
2022/06/09 11:24:32;;;;;;;;;22.50;21.50;;;;;-146.59;100.00;59519.28;4981683;28;51271;-52
2022/06/09 11:28:05;;;;;;;;;20.75;19.75;;;;;-146.59;100.00;59519.28;4964245;28;51653;-53
2022/06/09 11:31:35;;;;;;;;;26.75;23.25;;;;;-146.59;100.00;59519.28;4922024;28;51145;-53
2022/06/09 11:34:47;;;;;;;;;27.00;22.00;;;;;-146.59;100.00;59519.28;4921373;28;51551;-49
2022/06/09 11:37:51;;;;;;;;;24.00;19.00;;;;;-146.59;100.00;59519.28;4936702;28;51178;-50
2022/06/09 11:40:57;;;;;;;;;28.00;20.75;;;;;-146.59;100.00;59519.28;4960047;28;51078;-51
2022/06/09 11:44:06;;;;;;;;;29.00;21.75;;;;;-146.59;100.00;59519.28;4959607;28;51325;-50
2022/06/09 11:47:03;;;;;;;;;21.50;19.25;;;;;-146.59;100.00;59519.28;4959603;28;51178;-51
2022/06/09 11:49:51;;;;;;;;;24.25;22.75;;;;;-146.59;100.00;59519.28;4959653;28;51777;-53
2022/06/09 11:52:47;;;;;;;;;23.50;18.75;;;;;-146.59;100.00;59519.28;4932237;28;51163;-52
2022/06/09 11:55:59;;;;;;;;;24.50;22.25;;;;;-146.59;100.00;59519.28;4946154;28;51359;-50
2022/06/09 11:58:51;;;;;;;;;25.25;21.25;;;;;-146.59;100.00;59519.28;4981270;28;51117;-51
2022/06/09 12:01:50;;;;;;;;;20.50;20.50;;;;;-146.59;100.00;59519.28;4980696;28;51400;-53
2022/06/09 12:05:22;;;;;;;;;23.25;22.25;;;;;-146.59;100.00;59519.28;4966170;28;51105;-53
2022/06/09 12:08:39;;;;;;;;;23.25;22.75;;;;;-146.59;100.00;59519.28;4980705;28;51146;-51
2022/06/09 12:11:51;;;;;;;;;23.50;20.25;;;;;-146.59;100.00;59519.28;4978523;28;51138;-51
2022/06/09 12:18:27;;;;;;;;;26.00;20.75;;;;;-146.59;100.00;59519.28;4964525;28;51158;-53
2022/06/09 12:21:55;;;;;;;;;25.25;21.75;;;;;-146.59;100.00;59519.28;4962085;28;51023;-51
2022/06/09 12:25:17;;;;;;;;;22.75;21.25;;;;;-146.59;100.00;59519.28;4961924;28;51192;-50
2022/06/09 12:28:25;;;;;;;;;21.75;18.75;;;;;-146.59;100.00;59519.28;4963833;28;51484;-54
2022/06/09 12:31:20;;;;;;;;;18.00;17.00;;;;;-146.59;100.00;59519.28;4960998;28;51062;-50
2022/06/09 12:34:16;;;;;;;;;23.25;21.00;;;;;-146.59;100.00;59519.28;4973661;28;51138;-54
2022/06/09 12:37:02;;;;;;;;;22.50;22.50;;;;;-146.59;100.00;59519.28;4965882;28;51137;-51
2022/06/09 12:40:18;;;;;;;;;19.00;18.50;;;;;-146.59;100.00;59519.28;4964731;28;51648;-47
2022/06/09 12:43:09;;;;;;;;;24.25;22.75;;;;;-146.59;100.00;59519.28;4965305;28;51300;-53
2022/06/09 12:46:34;;;;;;;;;24.75;23.00;;;;;-146.59;100.00;59519.28;4964975;28;51400;-54
2022/06/09 12:49:34;;;;;;;;;24.00;21.75;;;;;-146.59;100.00;59519.28;4965975;28;51141;-54
2022/06/09 12:52:38;;;;;;;;;24.75;21.25;;;;;-146.59;100.00;59519.28;4960608;28;51503;-49
2022/06/09 12:55:34;;;;;;;;;25.50;21.25;;;;;-146.59;100.00;59519.28;4960715;28;51189;-53
2022/06/09 12:58:30;;;;;;;;;19.75;17.75;;;;;-146.59;100.00;59519.28;4960627;28;51213;-55
2022/06/09 13:01:29;;;;;;;;;24.00;21.50;;;;;-146.59;100.00;59519.28;4964606;28;51101;-52
2022/06/09 13:04:31;;;;;;;;;20.50;19.00;;;;;-146.59;100.00;59519.28;4979969;28;51105;-52
2022/06/09 13:11:05;;;;;;;;;25.00;21.00;;;;;-146.59;100.00;59519.28;4895790;28;51182;-53
2022/06/09 13:14:01;;;;;;;;;21.75;21.00;;;;;-146.59;100.00;59519.28;4919501;28;51543;-55
2022/06/09 13:17:17;;;;;;;;;19.25;17.25;;;;;-146.59;100.00;59519.28;4919260;28;51126;-51
2022/06/09 13:20:14;;;;;;;;;29.25;18.75;;;;;-146.59;100.00;59519.28;4905442;28;51361;-50
2022/06/09 13:23:02;;;;;;;;;21.25;19.25;;;;;-146.59;100.00;59519.28;4919198;28;51228;-51
2022/06/09 13:25:47;;;;;;;;;24.50;20.25;;;;;-146.59;100.00;59519.28;4919267;28;51193;-50
2022/06/09 13:29:06;;;;;;;;;21.75;21.00;;;;;-146.59;100.00;59519.28;4905458;28;51171;-50
2022/06/09 13:32:26;;;;;;;;;16.75;16.75;;;;;-146.59;100.00;59519.28;4908003;28;51180;-50
2022/06/09 13:35:42;;;;;;;;;20.50;19.50;;;;;-146.59;100.00;59519.28;4892558;28;51118;-54
2022/06/09 13:38:39;;;;;;;;;21.75;20.00;;;;;-146.59;100.00;59519.28;4918743;28;51125;-50
2022/06/09 13:41:49;;;;;;;;;23.50;19.00;;;;;-146.59;100.00;59519.28;4918603;28;51460;-51
2022/06/09 13:45:02;;;;;;;;;25.75;22.00;;;;;-146.59;100.00;59519.28;4861782;29;51176;-54